Tiempo atmosférico en la estación meteorológica de Villarrodrigo, Jaén (872 m.)



Fecha
DESCASC
Temp. máxima en grados centígrados (hora)
DESCASC
Temp. mínima en grados centígrados (hora)
DESCASC
Temp. media en grados centígrados
DESCASC
Racha de viento máxima en m/sg (hora)
DESCASC
Velocidad máxima media en intervalos de 10 minutos(hora)
DESCASC
Precipitaciones diarias en mm
DESCASC
Precipitaciones de 00:00 a 06:00 en mm
DESCASC
Precipitaciones de 06:00 a 12:00 en mm
DESCASC
Precipitaciones de 12:00 a 18:00 en mm
DESCASC
Precipitaciones de 18:00 a 24:00 en mm
DESCASC
18-08-2019 36.7 (16:00) 22.6 (08:00) 29.7 10.83 (18:00) 5.28 (16:00) 0 0 0 0 0
17-08-2019 38.2 (16:50) 22 (07:20) 30.1 16.11 (09:00) 4.72 (15:10) 0 0 0 0 0
16-08-2019 36.6 (17:20) 21.9 (08:10) 29.2 10.83 (15:30) 4.44 (16:50) 0 0 0 0 0
15-08-2019 36.3 (17:10) 20.8 (00:00) 28.5 16.39 (12:10) 3.61 (14:50) 0 0 0 0 0
14-08-2019 34.9 (17:00) 19.3 (00:00) 27.1 8.33 (17:50) 4.17 (17:50) 0 0 0 0 0
13-08-2019 32.6 (18:30) 20.7 (00:00) 26.6 14.44 (18:00) 5.28 (04:40) 0 0 0 0 0
12-08-2019 32.3 (17:40) 15.4 (00:00) 23.8 9.44 (20:40) 4.17 (20:10) 0 0 0 0 0
11-08-2019 31.4 (15:50) 20.2 (00:00) 25.8 9.72 (16:30) 5.28 (16:40) 0 0 0 0 0
10-08-2019 35.1 (18:10) 20 (00:00) 27.5 10.56 (18:00) 5.56 (17:10) 0 0 0 0 0
09-08-2019 34.1 (18:20) 19.6 (00:00) 26.8 10 (19:30) 4.72 (18:00) 0 0 0 0 0
08-08-2019 35.8 (17:30) 19.7 (00:00) 27.8 11.67 (18:30) 5.56 (18:30) 0 0 0 0 0
07-08-2019 33 (16:00) 19.8 (00:00) 26.4 16.11 (19:50) 4.72 (16:10) 0 0 0 0 0
06-08-2019 36.9 (17:40) 19.9 (00:00) 28.4 11.39 (16:50) 5.83 (16:50) 0 0 0 0 0
05-08-2019 37.4 (17:50) 20.7 (00:00) 29.1 11.11 (19:00) 5.56 (18:00) 0 0 0 0 0
04-08-2019 36.6 (18:50) 20 (00:00) 28.3 10.28 (16:30) 5.83 (17:30) 0 0 0 0 0
03-08-2019 37.2 (17:10) 21.2 (00:00) 29.2 9.44 (18:30) 4.44 (20:30) 0 0 0 0 0
02-08-2019 37.3 (17:10) 20.1 (00:00) 28.7 9.72 (17:50) 4.72 (19:40) 0 0 0 0 0
01-08-2019 35 (18:50) 20.3 (00:00) 27.6 13.06 (00:20) 7.5 (00:20) 0 0 0 0 0
31-07-2019 31.6 (17:50) 22.1 (00:00) 26.9 18.61 (23:30) 9.17 (23:10) 0 0 0 0 0
30-07-2019 36 (17:40) 17.9 (00:00) 26.9 9.72 (15:00) 5.28 (17:40) 0 0 0 0 0
29-07-2019 33.2 (18:40) 18 (00:00) 25.6 8.06 (19:20) 3.89 (19:50) 0 0 0 0 0
28-07-2019 32.3 (17:40) 17.9 (00:00) 25.1 9.72 (15:40) 4.72 (18:00) 0 0 0 0 0
27-07-2019 27.1 (19:10) 17.3 (00:00) 22.2 16.67 (20:00) 7.78 (19:10) 0 0 0 0 0
26-07-2019 30.7 (17:40) 21.9 (00:00) 26.3 12.78 (16:10) 6.11 (20:50) 0 0 0 0 0
25-07-2019 37.5 (17:40) 22.9 (00:00) 30.2 10 (18:50) 5.83 (00:10) 0 0 0 0 0
24-07-2019 37 (16:20) 22.9 (00:00) 29.9 15.83 (20:10) 8.61 (20:10) 0 0 0 0 0
23-07-2019 36.4 (17:10) 27.7 (00:00) 32.1 16.11 (09:50) 8.06 (09:50) 0 0 0 0 0
22-07-2019 35.1 (16:40) 24.4 (00:00) 29.7 18.89 (00:30) 10 (00:50) 0 0 0 0 0
21-07-2019 34.6 (15:20) 24.1 (00:00) 29.3 18.33 (23:10) 10.28 (23:59) 0 0 0 0 0

Gráficas

Temp. máximas Temp. mínimas Temp. medias Precipitaciones Rachas de viento máximas Velocidades máximas media en intervalos de 10 minutos

Datos horarios

Fecha y hora oficial Temperatura (ºC) Velocidad del viento (km/h) Dirección del viento Racha (km/h) Dirección de racha Precipitación (mm) Presión (hPa) Tendencia (hPa) Humedad (%)
2019-08-19 23:00:00 27.2 6 Sur 20 Sur 0 918.8 1.7 16
2019-08-19 22:00:00 29.3 5 Sur 23 Sudoeste 0 918.1 0.9 13
2019-08-19 21:00:00 30.7 11 Sudoeste 30 Sudoeste 0 917.5 0.1 12
2019-08-19 20:00:00 32.7 17 Sudoeste 36 Sudoeste 0 917.1 -0.4 12
2019-08-19 19:00:00 34.1 19 Oeste 45 Sudoeste 0 917.2 -0.7 12
2019-08-19 18:00:00 35 14 Oeste 40 Oeste 0 917.4 -0.9 10
2019-08-19 17:00:00 35.1 17 Sudoeste 42 Sudoeste 0 917.5 -1.2 9
2019-08-19 16:00:00 34.5 14 Sudoeste 36 Oeste 0 917.9 -1.2 13
2019-08-19 15:00:00 33.6 14 Oeste 33 Sudoeste 0 918.3 -1.2 14
2019-08-19 14:00:00 33.8 14 Oeste 29 Oeste 0 918.7 -1 14
2019-08-19 13:00:00 31.5 9 Oeste 21 Oeste 0 919.1 -0.3 19
2019-08-19 12:00:00 29.6 5 Oeste 13 Oeste 0 919.5 0.3 26
2019-08-19 11:00:00 28.2 5 Noroeste 15 Oeste 0 919.7 0.7 28
2019-08-19 10:00:00 26.1 3 Noroeste 7 Norte 0 919.4 0.6 32
2019-08-19 09:00:00 22.4 2 Nordeste 6 Este 0 919.2 0.5 40
2019-08-19 08:00:00 19.5 6 Sudeste 14 Sudeste 0 919 -0.1 48
2019-08-19 07:00:00 19.9 5 Sudeste 14 Sudeste 0 918.8 -0.5 46
2019-08-19 06:00:00 20.5 7 Sudeste 15 Sudeste 0 918.7 -0.7 45
2019-08-19 05:00:00 21.2 8 Sudeste 14 Sudeste 0 919.1 -0.3 43
2019-08-19 04:00:00 22.6 2 Este 10 Oeste 0 919.3 -0.2 39
2019-08-19 03:00:00 24.9 5 Sudoeste 16 Sudoeste 0 919.4 0.3 33
2019-08-19 02:00:00 25.6 5 Sudeste 21 Sudoeste 0 919.4 0.6 30
2019-08-19 01:00:00 27.1 6 Sur 24 Sudoeste 0 919.5 1.8 26
2019-08-19 00:00:00 28 11 Sudoeste 28 Sudoeste 0 919.1 2.3 24
2019-08-18 23:00:00 28.8 5 Sudoeste 19 Sudoeste 0 918.8 2.3 21
2019-08-18 22:00:00 30.1 8 Sudoeste 26 Sudoeste 0 917.7 1.2 17
2019-08-18 21:00:00 31.8 8 Sudoeste 24 Sudoeste 0 916.8 0.1 14
2019-08-18 20:00:00 34.2 13 Oeste 37 Oeste 0 916.5 -0.5 12
2019-08-18 19:00:00 35 19 Oeste -- -- 0 916.5 -1 12
2019-08-18 18:00:00 36 17 Oeste 39 Oeste 0 916.7 -1.1 12
2019-08-18 17:00:00 36 14 Oeste 36 Sudoeste 0 917 -1.2 12
2019-08-18 16:00:00 36.5 19 Oeste 35 Noroeste 0 917.5 -1.2 11
2019-08-18 15:00:00 35.4 10 Oeste 31 Sudoeste 0 917.8 -1.2 13
2019-08-18 14:00:00 35.1 10 Oeste 26 Oeste 0 918.2 -0.9 14
2019-08-18 13:00:00 33.9 8 Oeste 23 Oeste 0 918.7 -0.2 14
2019-08-18 12:00:00 32.1 7 Oeste 18 Sudoeste 0 919 0.4 18
2019-08-18 11:00:00 30.1 3 Sudeste 9 Sudeste 0 919.1 0.8 22
2019-08-18 10:00:00 29.6 3 Noroeste 9 Noroeste 0 918.9 1 23
2019-08-18 09:00:00 26 3 Noroeste 18 Sudeste 0 918.6 0.6 31
2019-08-18 08:00:00 22.6 8 Sudeste 14 Sudeste 0 918.3 0 34
2019-08-18 07:00:00 24.3 6 Sudeste 13 Sudeste 0 917.9 -0.7 30
2019-08-18 06:00:00 24.6 10 Sudeste 18 Sudeste 0 918 -0.9 29
2019-08-18 05:00:00 25.3 8 Sur 15 Sur 0 918.3 -0.3 28
2019-08-18 04:00:00 25.7 5 Sudeste 18 Sudeste 0 918.6 0.1 26
2019-08-18 03:00:00 27 4 Nordeste 15 Sudeste 0 918.9 0.5 23
2019-08-18 02:00:00 28.3 9 Sudeste 18 Sudeste 0 918.6 0.5 23
2019-08-18 01:00:00 27.3 14 Sudeste 18 Este 0 918.5 0.8 24
2019-08-18 00:00:00 27.7 12 Sudeste 19 Sudeste 0 918.4 1.2 24
2019-08-17 23:00:00 29.4 9 Sudeste 17 Sudeste 0 918.1 1.1 21
2019-08-17 22:00:00 30.9 6 Sudeste 13 Sudeste 0 917.7 0.4 17
2019-08-17 21:00:00 33.5 11 Oeste 25 Oeste 0 917.2 -0.5 13
2019-08-17 20:00:00 36.2 9 Oeste 26 Noroeste 0 917 -1 12
2019-08-17 19:00:00 37.2 12 Oeste 32 Oeste 0 917.3 -1.4 12
2019-08-17 18:00:00 37.5 13 Noroeste 30 Oeste 0 917.7 -1.7 11
2019-08-17 17:00:00 37.6 10 Oeste 28 Oeste 0 918 -2 11
2019-08-17 16:00:00 37.4 10 Oeste 37 Noroeste 0 918.7 -1.8 11
2019-08-17 15:00:00 36.5 12 Oeste 32 Oeste 0 919.4 -1.6 12
2019-08-17 14:00:00 34.6 13 Oeste 27 Oeste 0 920 -1.3 15
2019-08-17 13:00:00 34.9 8 Noroeste 17 Oeste 0 920.5 -0.9 17
2019-08-17 12:00:00 32.9 5 Oeste 15 Oeste 0 921 -0.3 20
2019-08-17 11:00:00 29.8 9 Oeste 18 Oeste 0 921.3 0.1 24
2019-08-17 10:00:00 28.9 5 Sur 13 Sudeste 0 921.4 0.4 25
2019-08-17 09:00:00 26.2 0 Calma 58 Sudoeste 0 921.3 0.5 30
2019-08-17 08:00:00 23 6 Sudeste 14 Sudeste 0 921.2 0.5 36
2019-08-17 07:00:00 22.2 8 Sudeste 14 Sudeste 0 921 0.3 38
2019-08-17 06:00:00 22.5 7 Sudeste 13 Sudeste 0 920.8 0 36
2019-08-17 05:00:00 23.9 4 Sudeste 9 Sur 0 920.7 -0.3 33
2019-08-17 04:00:00 26.3 5 Sudeste 17 Sur 0 920.7 -0.5 28
2019-08-17 03:00:00 27.2 7 Sur 18 Sur 0 920.8 0 25
2019-08-17 02:00:00 27.8 7 Sudeste 17 Sur 0 921 0.6 24
2019-08-17 01:00:00 26.8 11 Sudeste 19 Sudeste 0 921.2 1.4 24
2019-08-17 00:00:00 27.6 11 Sudeste 19 Sudeste 0 920.8 1.5 22
2019-08-16 23:00:00 28.9 9 Sudeste 21 Sur 0 920.4 1.4 19
2019-08-16 22:00:00 31 6 Sur 28 Sudoeste 0 919.8 0.7 15
2019-08-16 21:00:00 32.4 6 Sudoeste 27 Oeste 0 919.3 -0.1 14
2019-08-16 20:00:00 35 9 Oeste 29 Sudoeste 0 919 -1.1 13
2019-08-16 19:00:00 35.9 7 Sudoeste 29 Sudoeste 0 919.1 -1.4 12
2019-08-16 18:00:00 36.2 8 Oeste 32 Sudoeste 0 919.4 -1.6 12
2019-08-16 17:00:00 35.8 15 Oeste 35 Oeste 0 920.1 -1.1 13
2019-08-16 16:00:00 36 13 Oeste 39 Oeste 0 920.5 -1.1 13
2019-08-16 15:00:00 34.7 10 Oeste 29 Oeste 0 921 -1.1 14
2019-08-16 14:00:00 34 8 Oeste 26 Oeste 0 921.2 -1 17
2019-08-16 13:00:00 33.1 12 Oeste 22 Oeste 0 921.6 -0.7 20
2019-08-16 12:00:00 30.9 5 Sur 17 Oeste 0 922.1 -0.1 23
2019-08-16 11:00:00 29.2 5 Sudoeste 15 Sudeste 0 922.2 0.2 26
2019-08-16 10:00:00 27.6 7 Sur 16 Sur 0 922.3 0.8 29
2019-08-16 09:00:00 25.3 4 Sudeste 18 Sudeste 0 922.2 0.9 34
2019-08-16 08:00:00 22 9 Sudeste 16 Sudeste 0 922 0.5 40
2019-08-16 07:00:00 22.6 5 Sudeste 14 Sudeste 0 921.5 0 38
2019-08-16 06:00:00 22.9 5 Sudeste 15 Sur 0 921.3 0 37
2019-08-16 05:00:00 24.2 7 Sudeste 14 Sudeste 0 921.5 0.3 32
2019-08-16 04:00:00 24.6 4 Sudeste 14 Sudeste 0 921.5 0.3 30
2019-08-16 03:00:00 26.3 8 Sur 19 Sudeste 0 921.3 0.1 28
2019-08-16 02:00:00 26.3 6 Sur 15 Sur 0 921.2 0.1 28
2019-08-16 01:00:00 26.1 0 Calma 9 Sudeste 0 921.2 0.7 29
2019-08-16 00:00:00 27.8 6 Este 15 Sudeste 0 921.2 1.3 26
2019-08-15 23:00:00 27.6 8 Sudeste 19 Sudeste 0 921.1 1.4 26
2019-08-15 22:00:00 29.5 4 Sudeste 15 Este 0 920.5 0.8 22
2019-08-15 21:00:00 32.1 3 Sudoeste 20 Sudoeste 0 919.9 -0.1 14
2019-08-15 20:00:00 34.5 5 Sudoeste 21 Sudoeste 0 919.7 -0.6 12
2019-08-15 19:00:00 35.8 6 Oeste 24 Oeste 0 919.7 -1.2 11
2019-08-15 18:00:00 36 9 Oeste 24 Oeste 0 920 -1.3 11
2019-08-15 17:00:00 35.9 12 Oeste 27 Sudoeste 0 920.3 -1.5 11
2019-08-15 16:00:00 35.2 10 Oeste 28 Noroeste 0 920.9 -1.4 11
2019-08-15 15:00:00 35 11 Oeste 32 Oeste 0 921.3 -1.4 11
2019-08-15 14:00:00 33.7 10 Noroeste 26 Oeste 0 921.8 -0.9 13
2019-08-15 13:00:00 31.9 12 Oeste 59 Sudoeste 0 922.3 -0.3 17
2019-08-15 12:00:00 30.1 4 Noroeste 17 Oeste 0 922.7 0.1 25
2019-08-15 11:00:00 29 5 Oeste 14 Oeste 0 922.7 0.4 27
2019-08-15 10:00:00 27.2 2 Nordeste 58 Sudoeste 0 922.6 0.9 28
2019-08-15 09:00:00 24 2 Este 10 Sudeste 0 922.6 1.2 31
2019-08-15 08:00:00 21 8 Sudeste 13 Sudeste 0 922.3 1 35
2019-08-15 07:00:00 22.9 8 Sudeste 12 Sudeste 0 921.7 0.3 30
2019-08-15 06:00:00 23.5 6 Sudeste 11 Sudeste 0 921.4 -0.2 28
2019-08-15 05:00:00 22.9 4 Sudeste 13 Sudeste 0 921.3 -0.7 27
2019-08-15 04:00:00 23.3 3 Sudeste 8 Sur 0 921.4 -0.7 28
2019-08-15 03:00:00 24.9 4 Sudeste 12 Este 0 921.6 -0.5 26
2019-08-15 02:00:00 23.9 4 Sudeste 17 Sudeste 0 922 0.2 34
2019-08-15 01:00:00 24 3 Sudeste 12 Este 0 922.1 0.8 26
2019-08-15 00:00:00 24.5 9 Sudeste 19 Sudeste 0 922.1 1.4 21
2019-08-14 23:00:00 24.9 12 Sudeste 19 Sudeste 0 921.8 1.4 18
2019-08-14 22:00:00 26.5 11 Sudeste 17 Sudeste 0 921.3 0.6 17
2019-08-14 21:00:00 30.5 6 Noroeste 22 Noroeste 0 920.7 -0.1 14
2019-08-14 20:00:00 32.8 10 Sudoeste 19 Sudoeste 0 920.4 -0.7 12
2019-08-14 19:00:00 33.6 9 Sudoeste 24 Oeste 0 920.7 -0.9 12
2019-08-14 18:00:00 34.8 7 Noroeste 30 Oeste 0 920.8 -1.4 11
2019-08-14 17:00:00 34.1 9 Oeste 26 Noroeste 0 921.1 -1.7 12
2019-08-14 16:00:00 33.4 9 Sudoeste 24 Oeste 0 921.6 -1.3 12
2019-08-14 15:00:00 32.3 13 Oeste 29 Oeste 0 922.2 -1.1 14
2019-08-14 14:00:00 31.3 7 Oeste 24 Oeste 0 922.8 -0.5 15
2019-08-14 13:00:00 29.6 12 Oeste 24 Oeste 0 922.9 -0.4 23
2019-08-14 12:00:00 28 8 Oeste 20 Oeste 0 923.3 0.2 31
2019-08-14 11:00:00 26.6 6 Oeste 17 Oeste 0 923.3 0.5 34
2019-08-14 10:00:00 25.7 4 Noroeste 9 Oeste 0 923.3 0.9 35
2019-08-14 09:00:00 22.2 4 Sudeste 14 Sudeste 0 923.1 0.9 51
2019-08-14 08:00:00 19.3 11 Sudeste 17 Sudeste 0 922.8 0.7 61
2019-08-14 07:00:00 20.1 8 Sudeste 15 Sudeste 0 922.4 0.3 57
2019-08-14 06:00:00 20.5 7 Sudeste 14 Sur 0 922.2 0.3 52
2019-08-14 05:00:00 20.8 5 Sudeste 18 Sudeste 0 922.1 0.2 51
2019-08-14 04:00:00 20.5 4 Sudoeste 10 Sudoeste 0 922.1 0.3 52
2019-08-14 03:00:00 21.6 2 Este 17 Este 0 921.9 0 48
2019-08-14 02:00:00 22.7 6 Este 14 Este 0 921.9 0.4 41
2019-08-14 01:00:00 21.9 2 Sudeste 15 Este 0 921.8 0.9 42
2019-08-14 00:00:00 22.9 3 Sudeste 24 Este 0 921.9 1.7 44
2019-08-13 23:00:00 25.3 9 Este 27 Este 0 921.5 1.8 23
2019-08-13 22:00:00 26.2 9 Este 18 Este 0 920.9 1.3 19
2019-08-13 21:00:00 28.1 9 Norte 25 Norte 0 920.2 0.6 14
2019-08-13 20:00:00 30.4 14 Noroeste 33 Noroeste 0 919.7 -0.2 14
2019-08-13 19:00:00 32.2 8 Noroeste 35 Noroeste 0 919.6 -1 13
2019-08-13 18:00:00 32.4 11 Noroeste -- -- 0 919.6 -1.2 14
2019-08-13 17:00:00 31.3 7 Sur 31 Sudoeste 0 919.9 -1.2 16
2019-08-13 16:00:00 31.1 5 Oeste 28 Noroeste 0 920.6 -0.7 18
2019-08-13 15:00:00 30 8 Sudoeste 32 Oeste 0 920.8 -0.5 20
2019-08-13 14:00:00 29.5 10 Sudoeste 25 Oeste 0 921.1 -0.2 20
2019-08-13 13:00:00 28.6 5 Oeste 23 Oeste 0 921.3 0.3 25
2019-08-13 12:00:00 26.1 6 Sudeste 19 Sudeste 0 921.3 0.4 35
2019-08-13 11:00:00 25.3 8 Sudeste 26 Sudeste 0 921.3 0.8 42
2019-08-13 10:00:00 23.9 13 Sudeste 29 Sudeste 0 921 1.4 50
2019-08-13 09:00:00 21.8 15 Sudeste 28 Sudeste 0 920.9 1.3 58
2019-08-13 08:00:00 20.8 13 Sudeste 30 Sudeste 0 920.5 0.8 62
2019-08-13 07:00:00 21 16 Sudeste 34 Sudeste 0 919.6 -0.2 60
2019-08-13 06:00:00 21.3 14 Sudeste 27 Sudeste 0 919.6 -0.7 60
2019-08-13 05:00:00 21.7 16 Sudeste 45 Sudeste 0 919.7 -0.7 59
2019-08-13 04:00:00 21.9 14 Sudeste 32 Sudeste 0 919.8 -1.2 60
2019-08-13 03:00:00 21.9 11 Este 31 Este 0 920.3 -0.6 60
2019-08-13 02:00:00 21.9 9 Este 24 Sudeste 0 920.4 -0.2 55
2019-08-13 01:00:00 21.5 2 Noroeste 19 Nordeste 0 921 1.2 19
2019-08-13 00:00:00 23.4 8 Nordeste 19 Este 0 920.9 1.9 15
2019-08-12 23:00:00 23.7 6 Este 18 Nordeste 0 920.6 2.6 15
2019-08-12 22:00:00 24.2 3 Norte 21 Norte 0 919.8 2.3 14
2019-08-12 21:00:00 26.2 10 Norte 34 Noroeste 0 919 1.3 13
2019-08-12 20:00:00 30.2 13 Noroeste 30 Noroeste 0 918 -0.4 10
2019-08-12 19:00:00 32 11 Noroeste 30 Oeste 0 917.5 -1.6 10
2019-08-12 18:00:00 31.4 6 Noroeste 21 Noroeste 0 917.7 -2.1 10
2019-08-12 17:00:00 31.2 11 Oeste 25 Oeste 0 918.4 -1.9 9
2019-08-12 16:00:00 30.6 5 Nordeste 28 Noroeste 0 919.1 -1.6 10
2019-08-12 15:00:00 29.3 4 Norte 20 Noroeste 0 919.8 -1.2 12
2019-08-12 14:00:00 27.4 5 Noroeste 21 Norte 0 920.3 -0.4 15
2019-08-12 13:00:00 27.2 10 Noroeste 22 Noroeste 0 920.7 0.2 16
2019-08-12 12:00:00 23.8 4 Noroeste 14 Oeste 0 921 1 24
2019-08-12 11:00:00 21.5 4 Oeste 12 Norte 0 920.7 1 26
2019-08-12 10:00:00 20.2 6 Noroeste 12 Noroeste 0 920.5 1.1 27
2019-08-12 09:00:00 17.3 3 Oeste 8 Sudeste 0 920 0.8 33
2019-08-12 08:00:00 16.2 7 Sudeste 12 Sudeste 0 919.7 0.4 32
2019-08-12 07:00:00 15.8 6 Sudeste 13 Este 0 919.4 -0.2 32
2019-08-12 06:00:00 15.9 10 Sudeste 16 Sudeste 0 919.2 -1 32
2019-08-12 05:00:00 16.5 9 Sudeste 15 Este 0 919.3 -1.3 32
2019-08-12 04:00:00 18.2 6 Sudeste 13 Sudeste 0 919.6 -1 30
2019-08-12 03:00:00 18.7 8 Sudeste 13 Sudeste 0 920.2 -0.3 26
2019-08-12 02:00:00 21.1 3 Este 8 Este 0 920.6 0.2 20
2019-08-12 01:00:00 21.8 5 Sudeste 10 Sudeste 0 920.6 1.2 19
2019-08-12 00:00:00 22 7 Sudeste 21 Oeste 0 920.5 1.8 19
2019-08-11 23:00:00 23.6 6 Noroeste 14 Noroeste 0 920.4 2.4 17
2019-08-11 22:00:00 25.2 4 Sudeste 32 Sudoeste 0 919.4 1.3 18
2019-08-11 21:00:00 28.2 7 Sudoeste 27 Sudoeste 0 918.7 0.2 15
2019-08-11 20:00:00 29.9 14 Sudoeste 29 Sudoeste 0 918 -1 14
2019-08-11 19:00:00 29.6 10 Sur 26 Sur 0 918.1 -1.2 14
2019-08-11 18:00:00 29.9 8 Sur 29 Sudoeste 0 918.5 -1.2 15
2019-08-11 17:00:00 30.6 11 Sudoeste 35 Oeste 0 919 -1 14
2019-08-11 16:00:00 31.1 18 Sudoeste 33 Sudoeste 0 919.3 -1.1 13
2019-08-11 15:00:00 30.8 15 Oeste 33 Sudoeste 0 919.7 -0.8 13
2019-08-11 14:00:00 30 11 Oeste 34 Sudoeste 0 920 -0.3 12
2019-08-11 13:00:00 29.1 10 Sudoeste 27 Oeste 0 920.4 0 16
2019-08-11 12:00:00 26.9 14 Oeste 28 Oeste 0 920.5 -0.1 24
2019-08-11 11:00:00 26.6 8 Oeste 20 Oeste 0 920.3 -0.1 29
2019-08-11 10:00:00 25 9 Oeste 18 Oeste 0 920.4 0.7 34
2019-08-11 09:00:00 22.7 3 Sudoeste 10 Sudeste 0 920.6 1.3 42
2019-08-11 08:00:00 20.7 3 Oeste 27 Sudoeste 0 920.4 1.2 47
2019-08-11 07:00:00 21.4 8 Sudoeste 27 Sudoeste 0 919.7 0.5 45
2019-08-11 06:00:00 22.2 2 Sudeste 9 Sudeste 0 919.3 -0.3 49
2019-08-11 05:00:00 23.2 6 Sur 19 Sur 0 919.2 -1 46
2019-08-11 04:00:00 24.5 3 Sudoeste 18 Sur 0 919.2 -1 42
2019-08-11 03:00:00 25.6 6 Sur 17 Sudeste 0 919.6 -0.8 38
2019-08-11 02:00:00 26.1 8 Sur 18 Sur 0 920.2 0 34
2019-08-11 01:00:00 25.8 9 Sudeste 14 Sudeste 0 920.2 0.4 32
2019-08-11 00:00:00 27 7 Sudeste 16 Sudeste 0 920.4 1 28
2019-08-10 23:00:00 26.9 9 Sudeste 15 Sudeste 0 920.2 0.9 26
2019-08-10 22:00:00 28.8 7 Sudeste 15 Sudoeste 0 919.8 0.3 24
2019-08-10 21:00:00 31.4 9 Sudoeste 23 Oeste 0 919.4 -0.6 20
2019-08-10 20:00:00 33.5 13 Oeste 31 Oeste 0 919.3 -1.1 18
2019-08-10 19:00:00 34 15 Oeste 37 Oeste 0 919.5 -1.4 14
2019-08-10 18:00:00 34.4 19 Sudoeste 38 Sudoeste 0 920 -1.5 12
2019-08-10 17:00:00 34.3 16 Sudoeste 36 Oeste 0 920.4 -1.5 13
2019-08-10 16:00:00 34.3 12 Oeste 33 Oeste 0 920.9 -1.4 19
2019-08-10 15:00:00 32.6 12 Sudoeste 31 Oeste 0 921.5 -1.3 23
2019-08-10 14:00:00 31.5 12 Oeste 22 Oeste 0 921.9 -0.7 27
2019-08-10 13:00:00 30.8 9 Noroeste 20 Oeste 0 922.3 -0.6 33
2019-08-10 12:00:00 28.3 9 Oeste 16 Noroeste 0 922.8 0.1 42
2019-08-10 11:00:00 26.6 3 Sudoeste 11 Oeste 0 922.6 0.2 48
2019-08-10 10:00:00 24.7 3 Sur 9 Nordeste 0 922.9 0.9 55
2019-08-10 09:00:00 23.1 0 Calma 8 Sudeste 0 922.7 1.1 59
2019-08-10 08:00:00 20.2 3 Sudeste 9 Sudeste 0 922.4 1 66
2019-08-10 07:00:00 20.4 2 Sudeste 11 Sudeste 0 922 0.5 60
2019-08-10 06:00:00 21.2 6 Sudeste 10 Sudeste 0 921.6 0 57
2019-08-10 05:00:00 22.4 2 Sudeste 10 Este 0 921.4 -0.3 50
2019-08-10 04:00:00 24 6 Sur 23 Sudoeste 0 921.5 -0.2 44
2019-08-10 03:00:00 25.4 5 Sudoeste 24 Sudoeste 0 921.6 -0.1 35
2019-08-10 02:00:00 25.9 6 Sur 17 Sur 0 921.7 0.5 32
2019-08-10 01:00:00 26 5 Sudeste 14 Sudeste 0 921.7 1.2 33
2019-08-10 00:00:00 26.3 5 Sudeste 17 Sudeste 0 921.7 1.8 31
2019-08-09 23:00:00 27.8 4 Sur 15 Sudoeste 0 921.2 1.7 28
2019-08-09 22:00:00 29 5 Sur 18 Sudoeste 0 920.5 0.9 23
2019-08-09 21:00:00 30.7 9 Sudoeste 29 Sudoeste 0 919.9 0.2 19
2019-08-09 20:00:00 32.7 12 Sudoeste 36 Sudoeste 0 919.5 -0.6 14
2019-08-09 19:00:00 33.7 15 Oeste 33 Oeste 0 919.6 -1 15
2019-08-09 18:00:00 34 17 Sudoeste 35 Sudoeste 0 919.7 -1.3 14
2019-08-09 17:00:00 33.6 16 Sudoeste 36 Sudoeste 0 920.1 -1.3 15
2019-08-09 16:00:00 33.2 10 Sudoeste 32 Oeste 0 920.6 -0.9 18
2019-08-09 15:00:00 32.1 14 Oeste 33 Noroeste 0 921 -0.3 18
2019-08-09 14:00:00 31 13 Sudoeste 30 Oeste 0 921.4 0.2 18
2019-08-09 13:00:00 29.4 15 Oeste 28 Sudoeste 0 921.5 0.4 19
2019-08-09 12:00:00 29 11 Oeste 23 Noroeste 0 921.3 0.4 20
2019-08-09 11:00:00 27.8 8 Noroeste 17 Oeste 0 921.2 0.6 22
2019-08-09 10:00:00 25.9 2 Nordeste 7 Oeste 0 921.1 0.7 26
2019-08-09 09:00:00 22.8 3 Este 8 Este 0 920.9 0.7 34
2019-08-09 08:00:00 19.8 0 Calma 6 Este 0 920.6 0.5 41
2019-08-09 07:00:00 20.1 3 Sudeste 12 Sudeste 0 920.4 0.1 40
2019-08-09 06:00:00 21.3 3 Este 11 Noroeste 0 920.2 0.2 37
2019-08-09 05:00:00 23.7 6 Sudeste 21 Sudeste 0 920.1 0.5 32
2019-08-09 04:00:00 24.7 6 Sur 29 Sudoeste 0 920.3 1 29
2019-08-09 03:00:00 25.8 10 Sur 24 Sudoeste 0 920 0.8 23
2019-08-09 02:00:00 24.8 9 Sudeste 18 Este 0 919.6 0.5 22
2019-08-09 01:00:00 26.3 10 Sudeste 15 Sudeste 0 919.3 0.8 20
2019-08-09 00:00:00 26.3 8 Sudeste 17 Sudoeste 0 919.2 1.2 19
2019-08-08 23:00:00 28.8 4 Sur 18 Sur 0 919.1 1.3 15
2019-08-08 22:00:00 29.7 7 Sur 22 Sudoeste 0 918.5 0.6 13
2019-08-08 21:00:00 31.6 8 Sudoeste 33 Sudoeste 0 918 0.2 11
2019-08-08 20:00:00 33.9 14 Sudoeste 36 Sudoeste 0 917.8 -0.3 9
2019-08-08 19:00:00 34.9 15 Sudoeste 42 Sudoeste 0 917.9 -0.6 9
2019-08-08 18:00:00 35.3 12 Sudoeste 37 Sudoeste 0 917.8 -1.1 11
2019-08-08 17:00:00 35.1 15 Sudoeste 37 Oeste 0 918.1 -1.1 10
2019-08-08 16:00:00 34.6 14 Sudoeste 36 Sudoeste 0 918.5 -1.2 10
2019-08-08 15:00:00 33.5 15 Sudoeste 29 Oeste 0 918.9 -1 16
2019-08-08 14:00:00 33.2 9 Noroeste 26 Noroeste 0 919.2 -0.3 15
2019-08-08 13:00:00 32.1 8 Noroeste 20 Noroeste 0 919.7 0.2 18
2019-08-08 12:00:00 30.7 5 Noroeste 14 Oeste 0 919.9 0.6 20
2019-08-08 11:00:00 30 6 Noroeste 11 Noroeste 0 919.5 0.4 21
2019-08-08 10:00:00 27.4 3 Oeste 8 Noroeste 0 919.5 0.6 26
2019-08-08 09:00:00 23.7 4 Sudeste 12 Sudeste 0 919.3 0.4 33
2019-08-08 08:00:00 20 9 Sudeste 16 Este 0 919.1 0.2 40
2019-08-08 07:00:00 20.1 10 Sudeste 16 Sudeste 0 918.9 -0.1 40
2019-08-08 06:00:00 20.7 9 Sudeste 15 Sudeste 0 918.9 0 38
2019-08-08 05:00:00 21 10 Sudeste 16 Sudeste 0 918.9 -0.5 38
2019-08-08 04:00:00 22.3 6 Sudeste 11 Sudeste 0 919 -0.5 35
2019-08-08 03:00:00 22.9 6 Sudeste 12 Sudeste 0 918.9 -0.3 33
2019-08-08 02:00:00 22.5 7 Sudeste 17 Sudeste 0 919.4 1 32
2019-08-08 01:00:00 24.1 5 Sudeste 9 Sudeste 0 919.5 1.3 26
2019-08-08 00:00:00 24.7 7 Sudeste 12 Sudeste 0 919.2 1.3 25
2019-08-07 23:00:00 25.5 11 Sudeste 19 Sudeste 0 918.4 1.1 23
2019-08-07 22:00:00 26.6 7 Sudeste 16 Sudeste 0 918.2 0.5 22
2019-08-07 21:00:00 28.9 8 Oeste 23 Sudoeste 0 917.9 0.5 21
2019-08-07 20:00:00 30.6 10 Sudoeste 79 Noroeste 0 917.3 -0.3 15
2019-08-07 19:00:00 31 10 Sudoeste 30 Sudoeste 0 917.7 -0.3 14
2019-08-07 18:00:00 32.1 8 Sudoeste 27 Sudoeste 0 917.4 -0.9 13
2019-08-07 17:00:00 32.1 12 Oeste 31 Sudoeste 0 917.6 -1 14
2019-08-07 16:00:00 32.9 15 Sudoeste 32 Oeste 0 918 -0.7 15
2019-08-07 15:00:00 31.9 16 Sudoeste 34 Sudoeste 0 918.3 -0.5 15
2019-08-07 14:00:00 30.2 14 Oeste 30 Oeste 0 918.6 0 19
2019-08-07 13:00:00 28.7 9 Sudoeste 23 Oeste 0 918.7 0.3 22
2019-08-07 12:00:00 27.8 11 Oeste 24 Noroeste 0 918.8 0.9 22
2019-08-07 11:00:00 26.7 5 Oeste 14 Oeste 0 918.6 1 20
2019-08-07 10:00:00 23 2 Norte 6 Sudeste 0 918.4 1 25
2019-08-07 09:00:00 20.7 5 Sudeste 10 Sudeste 0 917.9 0.8 31
2019-08-07 08:00:00 20 0 Calma 14 Sudeste 0 917.6 0.5 29
2019-08-07 07:00:00 20.4 2 Norte 7 Noroeste 0 917.4 0.4 29
2019-08-07 06:00:00 21.6 2 Sudeste 13 Sudoeste 0 917.1 0 28
2019-08-07 05:00:00 22.7 3 Sur 12 Sudoeste 0 917.1 -0.4 27
2019-08-07 04:00:00 24.9 6 Sudoeste 24 Sudoeste 0 917 -0.4 23
2019-08-07 03:00:00 25.6 9 Sudeste 28 Sur 0 917.1 -0.1 18
2019-08-07 02:00:00 27.1 8 Sur 36 Sudoeste 0 917.5 0.6 13
2019-08-07 01:00:00 28.3 11 Sudoeste 33 Sudoeste 0 917.4 1 12
2019-08-07 00:00:00 28.7 8 Sur 25 Sudoeste 0 917.2 1.2 9
2019-08-06 23:00:00 28.9 5 Sur 15 Sudoeste 0 916.9 1.1 11
2019-08-06 22:00:00 29.9 4 Sur 16 Sudoeste 0 916.4 0.6 12
2019-08-06 21:00:00 32.2 12 Oeste 32 Oeste 0 916 -0.2 9
2019-08-06 20:00:00 34.3 16 Oeste 35 Oeste 0 915.8 -0.9 7
2019-08-06 19:00:00 35.6 18 Oeste 38 Oeste 0 915.8 -1.5 9
2019-08-06 18:00:00 36.4 15 Oeste 35 Oeste 0 916.2 -1.5 8
2019-08-06 17:00:00 36 13 Sudoeste 41 Oeste 0 916.7 -1.9 8
2019-08-06 16:00:00 35.1 15 Oeste 35 Oeste 0 917.3 -1.6 8
2019-08-06 15:00:00 34.2 16 Oeste 31 Oeste 0 917.7 -1.4 9
2019-08-06 14:00:00 33.3 12 Sudoeste 37 Sudoeste 0 918.6 -0.6 13
2019-08-06 13:00:00 33.6 14 Oeste 30 Oeste 0 918.9 -0.4 11
2019-08-06 12:00:00 31.6 7 Oeste 19 Noroeste 0 919.1 0 17
2019-08-06 11:00:00 29.6 4 Noroeste 10 Oeste 0 919.2 0.1 21
2019-08-06 10:00:00 27.5 4 Norte 8 Noroeste 0 919.3 0.2 24
2019-08-06 09:00:00 24.4 2 Sudeste 12 Sudeste 0 919.1 0.2 30
2019-08-06 08:00:00 20.3 3 Sudeste 15 Sudeste 0 919.1 0.2 36
2019-08-06 07:00:00 20.7 5 Sudeste 13 Sudeste 0 919.1 0 33
2019-08-06 06:00:00 21.3 7 Sudeste 13 Sudeste 0 918.9 -0.1 31
2019-08-06 05:00:00 22.7 8 Sudeste 16 Sudeste 0 918.9 0 28
2019-08-06 04:00:00 23.9 0 Calma 12 Noroeste 0 919.1 0.3 26
2019-08-06 03:00:00 26.7 6 Oeste 33 Sudoeste 0 919 0.5 18
2019-08-06 02:00:00 27.8 9 Sur 29 Sur 0 918.9 1 15
2019-08-06 01:00:00 28.2 7 Sur 24 Sur 0 918.8 1.6 18
2019-08-06 00:00:00 28.9 3 Nordeste 16 Sudoeste 0 918.5 1.8 18
2019-08-05 23:00:00 30 8 Sur 22 Sudeste 0 917.9 1.6 15
2019-08-05 22:00:00 31.3 6 Sur 26 Sudoeste 0 917.2 1.1 13
2019-08-05 21:00:00 33.3 14 Sudoeste 35 Sudoeste 0 916.7 0.3 12
2019-08-05 20:00:00 35.2 17 Oeste 37 Oeste 0 916.3 -0.4 12
2019-08-05 19:00:00 36.5 18 Oeste 40 Sudoeste 0 916.1 -1.3 12
2019-08-05 18:00:00 36.7 20 Oeste 36 Sudoeste 0 916.4 -1.5 10
2019-08-05 17:00:00 36.8 16 Sudoeste 31 Sudoeste 0 916.7 -1.9 11
2019-08-05 16:00:00 36.1 17 Oeste 35 Oeste 0 917.4 -1.8 11
2019-08-05 15:00:00 35.9 10 Oeste 31 Oeste 0 917.9 -1.6 13
2019-08-05 14:00:00 34.6 13 Oeste 27 Noroeste 0 918.6 -0.9 14
2019-08-05 13:00:00 33.5 10 Oeste 21 Oeste 0 919.2 -0.6 15
2019-08-05 12:00:00 33.2 6 Noroeste 16 Noroeste 0 919.5 -0.2 15
2019-08-05 11:00:00 30.3 3 Oeste 10 Noroeste 0 919.5 -0.1 20
2019-08-05 10:00:00 29 5 Noroeste 9 Noroeste 0 919.8 0.3 22
2019-08-05 09:00:00 24.4 4 Sudeste 8 Sudeste 0 919.7 0.4 28
2019-08-05 08:00:00 20.7 7 Sudeste 14 Sudeste 0 919.6 0.2 33
2019-08-05 07:00:00 21 9 Sudeste 15 Sudeste 0 919.5 -0.1 27
2019-08-05 06:00:00 22.5 3 Este 8 Sudeste 0 919.3 -0.6 24
2019-08-05 05:00:00 23 0 Calma 17 Sudeste 0 919.4 -0.6 25
2019-08-05 04:00:00 24.5 7 Sudeste 11 Sudeste 0 919.6 -0.3 24
2019-08-05 03:00:00 26 6 Este 19 Este 0 919.9 0.2 24
2019-08-05 02:00:00 25.9 3 Este 13 Sudeste 0 920 1 23
2019-08-05 01:00:00 26.6 11 Sudeste 17 Sudeste 0 919.9 1.7 22
2019-08-05 00:00:00 27.7 4 Sur 17 Sudeste 0 919.7 2 20
2019-08-04 23:00:00 28.5 8 Sudeste 23 Sudoeste 0 919 1.8 16
2019-08-04 22:00:00 30.9 10 Sudoeste 27 Sudoeste 0 918.2 1.2 14
2019-08-04 21:00:00 32.9 9 Oeste 29 Sudoeste 0 917.7 0.4 11
2019-08-04 20:00:00 34.6 15 Oeste 35 Sudoeste 0 917.2 -0.3 11
2019-08-04 19:00:00 35.7 17 Oeste 35 Oeste 0 917 -0.9 11
2019-08-04 18:00:00 35.9 18 Oeste 35 Oeste 0 917.3 -1.2 10
2019-08-04 17:00:00 36 15 Oeste 37 Oeste 0 917.5 -1.4 11
2019-08-04 16:00:00 35.9 9 Sudoeste 29 Oeste 0 917.9 -1.6 12
2019-08-04 15:00:00 35 8 Oeste 28 Sudoeste 0 918.5 -1.3 14
2019-08-04 14:00:00 34.5 10 Noroeste 21 Oeste 0 918.9 -1 14
2019-08-04 13:00:00 32.7 7 Oeste 16 Noroeste 0 919.5 -0.7 14
2019-08-04 12:00:00 30.8 5 Oeste 17 Sudoeste 0 919.8 -0.2 15
2019-08-04 11:00:00 28.8 6 Sudoeste 12 Sudeste 0 919.9 0.2 21
2019-08-04 10:00:00 27 3 Norte 8 Noroeste 0 920.2 0.6 24
2019-08-04 09:00:00 23.9 0 Calma 13 Sudeste 0 920 0.6 31
2019-08-04 08:00:00 20.5 5 Sudeste 11 Sudeste 0 919.7 0.3 36
2019-08-04 07:00:00 20.3 6 Sudeste 14 Sudeste 0 919.6 0.5 35
2019-08-04 06:00:00 21.4 3 Este 10 Sudeste 0 919.4 0.2 33
2019-08-04 05:00:00 22 3 Este 9 Sudeste 0 919.4 0.3 29
2019-08-04 04:00:00 24.3 3 Sudeste 10 Sudeste 0 919.1 0.3 25
2019-08-04 03:00:00 24.8 4 Sudeste 13 Sudeste 0 919.2 0.6 24
2019-08-04 02:00:00 26.2 3 Sur 16 Sudeste 0 919.1 1 22
2019-08-04 01:00:00 28.1 8 Sur 27 Sur 0 918.8 1.6 20
2019-08-04 00:00:00 28.6 8 Sudeste 20 Sudeste 0 918.6 2.1 20
2019-08-03 23:00:00 29.1 6 Sur 25 Oeste 0 918.1 1.8 19
2019-08-03 22:00:00 30.7 9 Sudoeste 28 Sudoeste 0 917.2 0.7 18
2019-08-03 21:00:00 32.8 12 Oeste 26 Oeste 0 916.5 -0.1 15
2019-08-03 20:00:00 35.4 12 Oeste 30 Sudoeste 0 916.3 -0.7 10
2019-08-03 19:00:00 36.1 10 Sudoeste 34 Oeste 0 916.5 -1.1 11
2019-08-03 18:00:00 36.5 13 Oeste 32 Oeste 0 916.6 -1.4 11
2019-08-03 17:00:00 36.9 13 Oeste 31 Oeste 0 917 -1.6 13
2019-08-03 16:00:00 36.2 9 Oeste 31 Oeste 0 917.6 -1.6 14
2019-08-03 15:00:00 36.2 12 Oeste 27 Oeste 0 918 -1.5 14
2019-08-03 14:00:00 33.9 6 Oeste 18 Oeste 0 918.6 -1.1 19
2019-08-03 13:00:00 32.7 7 Oeste 18 Oeste 0 919.2 -0.6 14
2019-08-03 12:00:00 30.9 4 Sudoeste 21 Oeste 0 919.5 0 15
2019-08-03 11:00:00 28.3 11 Oeste 21 Oeste 0 919.7 0.6 18
2019-08-03 10:00:00 27.9 4 Noroeste 9 Noroeste 0 919.8 0.9 19
2019-08-03 09:00:00 25.1 0 Calma 10 Sudeste 0 919.5 1.2 24
2019-08-03 08:00:00 21.3 5 Sudeste 12 Sudeste 0 919.1 0.6 29
2019-08-03 07:00:00 21.9 5 Sudeste 9 Sudoeste 0 918.9 0.3 27
2019-08-03 06:00:00 22.2 3 Sur 15 Sudeste 0 918.3 -0.5 26
2019-08-03 05:00:00 23.2 3 Nordeste 13 Sudeste 0 918.5 -0.4 25
2019-08-03 04:00:00 24.9 3 Norte 16 Sur 0 918.6 -0.3 23
2019-08-03 03:00:00 25.9 10 Sudeste 26 Sur 0 918.8 -0.1 22
2019-08-03 02:00:00 27.5 12 Sudeste 24 Sur 0 918.9 0.4 19
2019-08-03 01:00:00 26.9 6 Sudeste 18 Sudeste 0 918.9 1.3 15
2019-08-03 00:00:00 27.2 13 Sudeste 18 Sudeste 0 918.9 1.8 13
2019-08-02 23:00:00 28.8 8 Sudeste 26 Sur 0 918.5 1.5 11
2019-08-02 22:00:00 30.8 8 Sur 21 Sur 0 917.6 0.6 10
2019-08-02 21:00:00 33.3 11 Sudoeste 29 Oeste 0 917.1 0 9
2019-08-02 20:00:00 35.3 14 Oeste 31 Oeste 0 917 -0.5 7
2019-08-02 19:00:00 36.1 14 Sudoeste 31 Oeste 0 917 -0.9 8
2019-08-02 18:00:00 36.7 11 Oeste 35 Sudoeste 0 917.1 -1.1 8
2019-08-02 17:00:00 36.7 9 Oeste 31 Oeste 0 917.5 -1.3 8
2019-08-02 16:00:00 36.4 12 Oeste 35 Noroeste 0 917.9 -1.1 10
2019-08-02 15:00:00 35.2 10 Sudoeste 26 Noroeste 0 918.2 -1.1 13
2019-08-02 14:00:00 34.4 7 Norte 23 Oeste 0 918.8 -0.5 15
2019-08-02 13:00:00 32.8 5 Noroeste 21 Noroeste 0 919 -0.4 20
2019-08-02 12:00:00 30.7 5 Oeste 14 Oeste 0 919.3 0.1 26
2019-08-02 11:00:00 29.7 7 Noroeste 15 Noroeste 0 919.3 0.3 29
2019-08-02 10:00:00 27.6 3 Norte 9 Noroeste 0 919.4 0.5 34
2019-08-02 09:00:00 24 3 Este 10 Sudeste 0 919.2 0.5 44
2019-08-02 08:00:00 20.3 6 Sudeste 17 Sudeste 0 919 0.4 50
2019-08-02 07:00:00 20.5 9 Sudeste 14 Sudeste 0 918.9 0.6 48
2019-08-02 06:00:00 21.7 4 Sudeste 13 Sudeste 0 918.7 0.5 44
2019-08-02 05:00:00 22 9 Sudeste 14 Sudeste 0 918.6 0 42
2019-08-02 04:00:00 22.9 9 Sudeste 14 Sudeste 0 918.3 -0.2 41
2019-08-02 03:00:00 24.4 7 Sudeste 11 Sudeste 0 918.2 -0.3 38
2019-08-02 02:00:00 25.6 4 Este 16 Sudeste 0 918.6 0.8 35
2019-08-02 01:00:00 27.1 6 Sur 13 Sur 0 918.5 1.6 31
2019-08-02 00:00:00 27 6 Sudeste 15 Sudeste 0 918.5 2.2 31
2019-08-01 23:00:00 27.1 10 Sudeste 15 Sudeste 0 917.8 2.1 29
2019-08-01 22:00:00 29 4 Sudeste 20 Sudoeste 0 916.9 1.4 25
2019-08-01 21:00:00 31.5 15 Sudoeste 29 Sudoeste 0 916.3 0.5 19
2019-08-01 20:00:00 33.8 13 Oeste 30 Oeste 0 915.7 -0.6 15
2019-08-01 19:00:00 34.8 12 Oeste 29 Oeste 0 915.5 -1.2 15
2019-08-01 18:00:00 34.8 10 Oeste 27 Oeste 0 915.8 -1.5 19
2019-08-01 17:00:00 34.6 8 Oeste 24 Oeste 0 916.3 -1.3 20
2019-08-01 16:00:00 33.8 8 Noroeste 28 Oeste 0 916.7 -1.3 23
2019-08-01 15:00:00 31.9 9 Sudoeste 21 Oeste 0 917.3 -0.7 27
2019-08-01 14:00:00 30.7 8 Oeste 25 Oeste 0 917.6 -0.4 27
2019-08-01 13:00:00 29.8 12 Noroeste 22 Oeste 0 918 0 33
2019-08-01 12:00:00 27.7 9 Oeste 19 Sur 0 918 0.3 40
2019-08-01 11:00:00 25.8 7 Sur 23 Sur 0 918 0.4 43
2019-08-01 10:00:00 24.1 9 Sur 23 Sudeste 0 918 0.2 50
2019-08-01 09:00:00 22.5 9 Sudeste 21 Sudeste 0 917.7 0.2 55
2019-08-01 08:00:00 20.6 8 Sudeste 15 Sudeste 0 917.6 0.4 59
2019-08-01 07:00:00 20.9 5 Sur 15 Sudeste 0 917.8 0.7 52
2019-08-01 06:00:00 20.7 10 Sudeste 16 Sudeste 0 917.5 0.6 48
2019-08-01 05:00:00 22.1 2 Sudoeste 17 Sur 0 917.2 0 42
2019-08-01 04:00:00 23 8 Sudeste 18 Sur 0 917.1 0.3 36
2019-08-01 03:00:00 23.7 12 Sudeste 31 Sudeste 0 916.9 0.3 34
2019-08-01 02:00:00 24.1 17 Sudeste 46 Sudeste 0 917.2 0.5 34
2019-08-01 01:00:00 24.5 12 Sudeste 47 Sudeste 0 916.8 1 33
2019-08-01 00:00:00 24.6 28 Sudeste 67 Sudeste 0 916.6 1.2 36
2019-07-31 23:00:00 25 32 Sudeste 57 Sudeste 0 916.7 1.5 36
2019-07-31 22:00:00 26 26 Sudeste 51 Este 0 915.8 0.5 34
2019-07-31 21:00:00 27 22 Sudeste 55 Sudeste 0 915.4 -0.2 33
2019-07-31 20:00:00 28.9 26 Sudeste 51 Sudeste 0 915.2 -1 31
2019-07-31 19:00:00 30.4 25 Sudeste 45 Sudeste 0 915.3 -1.7 30
2019-07-31 18:00:00 30.3 26 Este 49 Este 0 915.6 -1.7 31
2019-07-31 17:00:00 30.8 22 Este 44 Este 0 916.2 -1.5 28
2019-07-31 16:00:00 30.7 19 Este 42 Este 0 917 -1.2 27
2019-07-31 15:00:00 30.6 18 Este 37 Este 0 917.3 -0.8 27
2019-07-31 14:00:00 29.5 17 Este 43 Este 0 917.7 -0.5 27
2019-07-31 13:00:00 28.3 19 Este 42 Este 0 918.2 0.2 31
2019-07-31 12:00:00 28 16 Sudeste 42 Sudeste 0 918.1 0.3 30
2019-07-31 11:00:00 25.5 22 Sudeste 42 Sudeste 0 918.2 0.9 36
2019-07-31 10:00:00 24.7 14 Este 30 Sudeste 0 918 1.1 37
2019-07-31 09:00:00 23.2 12 Este 32 Este 0 917.8 0.1 42
2019-07-31 08:00:00 22.6 11 Este 29 Este 0 917.3 -0.5 39
2019-07-31 07:00:00 22.5 3 Este 33 Sudeste 0 916.9 -0.6 40
2019-07-31 06:00:00 22.5 14 Sudeste 45 Sudeste 0 917.7 0.3 44
2019-07-31 05:00:00 22.4 26 Sudeste 51 Sudeste 0 917.8 0.5 52
2019-07-31 04:00:00 23.2 21 Sudeste 43 Sudeste 0 917.5 0 50
2019-07-31 03:00:00 24.3 15 Sudeste 33 Sudeste 0 917.4 0.1 47
2019-07-31 02:00:00 25.2 16 Sudeste 32 Sudeste 0 917.3 0.3 42
2019-07-31 01:00:00 25 9 Este 24 Sudeste 0 917.5 1.1 45
2019-07-31 00:00:00 25.4 3 Oeste 22 Este 0 917.3 1.4 45
2019-07-30 23:00:00 26.2 14 Este 30 Este 0 917 1.5 42
2019-07-30 22:00:00 28.3 11 Sudeste 21 Sudeste 0 916.4 0.8 32
2019-07-30 21:00:00 31.5 10 Norte 20 Noroeste 0 915.9 -0.1 15
2019-07-30 20:00:00 34.6 9 Noroeste 21 Oeste 0 915.5 -0.8 9
2019-07-30 19:00:00 34.8 11 Oeste 31 Oeste 0 915.6 -1 9
2019-07-30 18:00:00 35.1 13 Oeste 33 Oeste 0 916 -1.1 10
2019-07-30 17:00:00 34.9 15 Oeste 35 Oeste 0 916.3 -1.5 12
2019-07-30 16:00:00 34.8 11 Oeste -- -- 0 916.6 -1.6 13
2019-07-30 15:00:00 33.2 14 Oeste 35 Oeste 0 917.1 -1.4 14
2019-07-30 14:00:00 33.2 11 Noroeste 26 Noroeste 0 917.8 -0.9 15
2019-07-30 13:00:00 30.7 6 Sudoeste 18 Norte 0 918.2 -0.6 18
2019-07-30 12:00:00 30.1 5 Oeste 17 Noroeste 0 918.5 -0.1 20
2019-07-30 11:00:00 28.3 5 Noroeste 12 Noroeste 0 918.7 0.4 23
2019-07-30 10:00:00 25.3 3 Sudeste 9 Norte 0 918.8 0.8 26
2019-07-30 09:00:00 22.9 2 Este 15 Sudeste 0 918.6 0.8 31
2019-07-30 08:00:00 18 10 Sudeste 17 Sudeste 0 918.3 0.6 40
2019-07-30 07:00:00 18.5 9 Sudeste 16 Sudeste 0 918 0.4 39
2019-07-30 06:00:00 19.6 10 Sudeste 15 Sudeste 0 917.8 0.2 40
2019-07-30 05:00:00 20.1 8 Sudeste 14 Sudeste 0 917.7 -0.1 39
2019-07-30 04:00:00 20.8 9 Sudeste 17 Sudeste 0 917.6 -0.3 31
2019-07-30 03:00:00 21.3 9 Sudeste 17 Sudeste 0 917.6 -0.1 29
2019-07-30 02:00:00 21.2 10 Sudeste 17 Sudeste 0 917.8 0.8 26
2019-07-30 01:00:00 22.7 8 Sudeste 14 Sudeste 0 917.9 1.8 23
2019-07-30 00:00:00 24.2 6 Sudeste 13 Sudeste 0 917.7 2.4 26
2019-07-29 23:00:00 26.1 3 Este 12 Oeste 0 917 2 29
2019-07-29 22:00:00 28 3 Sudoeste 23 Sudoeste 0 916.1 1 25
2019-07-29 21:00:00 29.4 9 Sudoeste 27 Sudoeste 0 915.3 0 23
2019-07-29 20:00:00 31.5 13 Oeste 29 Oeste 0 915 -0.6 20
2019-07-29 19:00:00 32.7 11 Oeste 28 Oeste 0 915.1 -0.9 18
2019-07-29 18:00:00 32.6 6 Sudoeste 26 Oeste 0 915.3 -1 17
2019-07-29 17:00:00 32.5 12 Oeste 28 Oeste 0 915.6 -1 18
2019-07-29 16:00:00 32.6 12 Oeste 28 Oeste 0 916 -1 17
2019-07-29 15:00:00 31.2 11 Sudoeste 23 Oeste 0 916.3 -0.8 22
2019-07-29 14:00:00 30.3 9 Oeste 27 Noroeste 0 916.6 -0.4 25
2019-07-29 13:00:00 29.4 11 Oeste 27 Oeste 0 917 0 28
2019-07-29 12:00:00 27.4 8 Oeste 19 Sudoeste 0 917.1 0.1 32
2019-07-29 11:00:00 25.5 3 Sudoeste 13 Noroeste 0 917 0.6 41
2019-07-29 10:00:00 24.2 4 Sudoeste 11 Oeste 0 917 1 43
2019-07-29 09:00:00 22 4 Noroeste 9 Norte 0 917 1.3 53
2019-07-29 08:00:00 18.1 3 Sudeste 7 Norte 0 916.4 0.8 58
2019-07-29 07:00:00 18.6 2 Norte 8 Este 0 916 0.5 54
2019-07-29 06:00:00 19.3 0 Calma 7 Sudeste 0 915.7 0.3 49
2019-07-29 05:00:00 19.8 8 Sudeste 13 Sudeste 0 915.6 0 46
2019-07-29 04:00:00 21.6 6 Sudeste 12 Sudeste 0 915.5 0 39
2019-07-29 03:00:00 22.2 4 Sudeste 11 Sudeste 0 915.4 0.1 34
2019-07-29 02:00:00 22.2 7 Sudeste 15 Sudeste 0 915.6 0.5 35
2019-07-29 01:00:00 22.6 5 Sudeste 16 Sudeste 0 915.5 1.4 32
2019-07-29 00:00:00 23.5 4 Sudeste 15 Sudeste 0 915.3 1.6 30
2019-07-28 23:00:00 25.1 5 Sudoeste 21 Norte 0 915.1 1.9 25
2019-07-28 22:00:00 26.6 5 Sudeste 18 Oeste 0 914.1 1.1 21
2019-07-28 21:00:00 29.1 7 Oeste 24 Oeste 0 913.7 0.7 15
2019-07-28 20:00:00 30.5 11 Sudoeste 32 Oeste 0 913.2 -0.2 18
2019-07-28 19:00:00 31.5 11 Oeste 27 Oeste 0 913 -0.9 17
2019-07-28 18:00:00 31.2 17 Oeste 34 Oeste 0 913 -1.3 20
2019-07-28 17:00:00 31.5 12 Oeste 29 Oeste 0 913.4 -1.2 21
2019-07-28 16:00:00 30 9 Oeste 35 Oeste 0 913.9 -1.2 24
2019-07-28 15:00:00 29.3 11 Oeste 32 Oeste 0 914.3 -1.2 25
2019-07-28 14:00:00 28.8 9 Noroeste 27 Noroeste 0 914.6 -1.2 29
2019-07-28 13:00:00 27 5 Noroeste 22 Noroeste 0 915.1 -0.8 33
2019-07-28 12:00:00 25.4 5 Noroeste 14 Oeste 0 915.5 -0.4 39
2019-07-28 11:00:00 23.9 4 Oeste 13 Oeste 0 915.8 0.2 48
2019-07-28 10:00:00 21.6 3 Nordeste 9 Oeste 0 915.9 0.6 62
2019-07-28 09:00:00 18.4 5 Noroeste 12 Oeste 0 915.9 0.9 79
2019-07-28 08:00:00 18.1 2 Noroeste 5 Oeste 0 915.6 0.5 80
2019-07-28 07:00:00 17.9 3 Oeste 13 Oeste 0 915.3 0.1 81
2019-07-28 06:00:00 18 7 Oeste 15 Sudoeste 0 915 -0.4 80
2019-07-28 05:00:00 18.1 3 Oeste 15 Sudoeste 0 915.1 -0.3 79
2019-07-28 04:00:00 18.3 4 Oeste 15 Sudoeste 0 915.2 -0.5 72
2019-07-28 03:00:00 18.5 4 Sur 11 Sur 0 915.4 -0.2 69
2019-07-28 02:00:00 18.1 7 Sudeste 14 Sudeste 0 915.4 0.4 61
2019-07-28 01:00:00 18.6 7 Sudeste 13 Sudeste 0 915.7 1.4 61
2019-07-28 00:00:00 19.3 4 Sudeste 13 Oeste 0 915.6 1.8 61
2019-07-27 23:00:00 20.3 10 Noroeste 24 Noroeste 0 915 2 58
2019-07-26 12:00:00 25.6 18 Oeste 32 Oeste 0 917.5 -0.5 36
2019-07-26 11:00:00 24.5 16 Oeste 29 Oeste 0 917.7 -0.1 40
2019-07-26 10:00:00 23.7 2 Sur 9 Norte 0 917.9 0.3 40
2019-07-26 09:00:00 21.9 2 Sudoeste 15 Sur 0 918 0.5 47
2019-07-26 08:00:00 22 7 Sudeste 17 Sudeste 0 917.8 0.1 45
2019-07-26 07:00:00 22.5 5 Sur 16 Sudoeste 0 917.6 -0.3 33
2019-07-26 06:00:00 22.9 4 Sudeste 15 Sudeste 0 917.5 -0.8 30
2019-07-26 05:00:00 23.1 6 Sudeste 15 Sudeste 0 917.7 -0.8 30
2019-07-26 04:00:00 23.8 3 Sur 10 Sur 0 917.9 -0.7 32
2019-07-26 03:00:00 24.6 6 Sur 23 Sudoeste 0 918.3 0.1 36
2019-07-26 02:00:00 26 6 Sudoeste 29 Sudoeste 0 918.5 0.6 31
2019-07-26 01:00:00 27.5 8 Sudoeste 31 Sur 0 918.6 1.5 26
2019-07-26 00:00:00 28.9 10 Sudeste 23 Sudeste 0 918.2 1.8 23
2019-07-25 23:00:00 28.6 7 Sudeste 27 Sur 0 917.9 2 25
2019-07-25 22:00:00 30.8 8 Sur 30 Sudoeste 0 917.1 1.2 19
2019-07-25 21:00:00 32.9 15 Oeste 31 Sudoeste 0 916.4 0.2 17
2019-07-25 20:00:00 35 15 Sudoeste 33 Oeste 0 915.9 -0.7 11
2019-07-25 19:00:00 36.1 15 Oeste 36 Oeste 0 915.9 -1.3 13
2019-07-25 18:00:00 36.7 12 Oeste 28 Oeste 0 916.2 -1.4 13
2019-07-25 17:00:00 35.8 3 Sudoeste 34 Oeste 0 916.6 -1.5 13
2019-07-25 16:00:00 36.8 10 Noroeste 30 Noroeste 0 917.2 -1.5 13
2019-07-25 15:00:00 35.3 12 Sur 31 Oeste 0 917.6 -1.4 14
2019-07-25 14:00:00 35.2 10 Noroeste 24 Oeste 0 918.1 -1.3 14
2019-07-25 13:00:00 33.2 9 Oeste 24 Oeste 0 918.7 -0.9 17
2019-07-25 12:00:00 32.8 7 Noroeste 17 Noroeste 0 919 -0.5 22
2019-07-25 11:00:00 29.8 9 Oeste 19 Oeste 0 919.4 -0.2 28
2019-07-25 10:00:00 29.9 4 Noroeste 10 Oeste 0 919.6 0.3 28
2019-07-25 09:00:00 26.7 0 Calma 6 Oeste 0 919.5 0.6 30
2019-07-25 08:00:00 23.1 4 Sudeste 14 Sudeste 0 919.6 0.5 35
2019-07-25 07:00:00 23.3 4 Sudeste 14 Sudeste 0 919.3 -0.1 31
2019-07-25 06:00:00 24.1 9 Sudeste 18 Sudeste 0 918.9 -0.4 30
2019-07-25 05:00:00 24.3 9 Sudeste 17 Sudeste 0 919.1 0 31
2019-07-25 04:00:00 24.4 8 Sudeste 17 Sudeste 0 919.4 0.2 27
2019-07-25 03:00:00 25.6 3 Sudeste 12 Noroeste 0 919.3 0.3 25
2019-07-25 02:00:00 27.6 4 Sur 27 Sudeste 0 919.1 0.6 22
2019-07-25 01:00:00 28.1 17 Sudeste 34 Sudeste 0 919.2 1.3 21
2019-07-25 00:00:00 28.4 19 Sudeste 34 Sudeste 0 919 1.5 21
2019-07-24 23:00:00 29.1 21 Sudeste 42 Sudeste 0 918.5 1.5 20
2019-07-24 22:00:00 30.7 26 Sudeste 51 Sudeste 0 917.9 1 18
2019-07-24 21:00:00 31.9 25 Sudeste 57 Este 0 917.5 0.2 16
2019-07-24 20:00:00 33.2 26 Este 56 Sudeste 0 917 -0.7 14
2019-07-24 19:00:00 34.9 22 Este 45 Este 0 916.9 -1 13
2019-07-24 18:00:00 35.9 -- -- -- -- 0 917.3 -1.2 12
2019-07-24 17:00:00 35.6 17 Sudeste 44 Sudeste 0 917.7 -1.4 12
2019-07-24 16:00:00 36.4 15 Este 39 Sudeste 0 917.9 -1.5 12
2019-07-24 15:00:00 35.3 18 Este 46 Sudeste 0 918.5 -1.3 12
2019-07-24 14:00:00 34.3 17 Sudeste 45 Sudeste 0 919.1 -0.7 13
2019-07-24 13:00:00 33.2 24 Sudeste 42 Este 0 919.4 -0.5 14
2019-07-24 12:00:00 32.2 19 Sudeste 38 Sudeste 0 919.8 -0.2 15
2019-07-24 11:00:00 31.9 12 Este 34 Este 0 919.8 -0.1 15
2019-07-24 10:00:00 30.8 4 Noroeste 10 Noroeste 0 919.9 0 17
2019-07-24 09:00:00 27.1 2 Noroeste 9 Sudeste 0 920 0.1 25
2019-07-24 08:00:00 23 2 Sur 13 Sudeste 0 919.9 -0.1 27
2019-07-24 07:00:00 23.5 3 Sudeste 11 Sudeste 0 919.9 -0.4 25
2019-07-24 06:00:00 23.1 4 Sudeste 9 Este 0 919.9 -0.7 26
2019-07-24 05:00:00 24.9 8 Sudeste 16 Sudeste 0 920 -0.4 23
2019-07-24 04:00:00 24.5 10 Sudeste 15 Sudeste 0 920.3 0 23
2019-07-24 03:00:00 26.5 3 Sudeste 33 Sudeste 0 920.6 0.3 19
2019-07-24 02:00:00 28.6 18 Sudeste 40 Sudeste 0 920.4 0.3 15
2019-07-24 01:00:00 29.1 23 Sudeste 41 Sudeste 0 920.3 0.7 15
2019-07-24 00:00:00 29.3 22 Sudeste 47 Este 0 920.3 1.2 15
2019-07-23 23:00:00 29.2 20 Sudeste 40 Sudeste 0 920.1 1.1 17
2019-07-23 22:00:00 30.2 24 Sudeste 49 Sudeste 0 919.6 0.8 15
2019-07-23 21:00:00 31.2 25 Sudeste 56 Este 0 919.1 0.2 15
2019-07-23 20:00:00 32.4 17 Este 53 Este 0 919 -0.3 14
2019-07-23 19:00:00 34.1 27 Este -- -- 0 918.8 -1 13
2019-07-23 18:00:00 35.8 19 Sudeste 43 Sudeste 0 918.9 -1.1 11
2019-07-23 17:00:00 36.2 19 Sudeste 52 Este 0 919.3 -1 11
2019-07-23 16:00:00 35.1 21 Este 47 Sudeste 0 919.8 -0.8 12
2019-07-23 15:00:00 34.9 20 Sudeste 53 Sudeste 0 920 -0.8 12
2019-07-23 14:00:00 33.5 22 Sudeste 48 Sudeste 0 920.3 -0.6 13
2019-07-23 13:00:00 33.8 20 Sudeste 45 Sudeste 0 920.6 -0.2 13
2019-07-23 12:00:00 32.5 17 Sudeste 48 Sudeste 0 920.8 0 14
2019-07-23 11:00:00 31.1 26 Sudeste 56 Sudeste 0 920.9 0.2 14
2019-07-23 10:00:00 30.2 27 Sudeste 58 Este 0 920.8 0 15
2019-07-23 09:00:00 29.2 25 Sudeste 53 Sudeste 0 920.8 0.3 16
2019-07-23 08:00:00 27.9 23 Sudeste 48 Sudeste 0 920.7 -0.4 17
2019-07-23 07:00:00 28 22 Sudeste 47 Sudeste 0 920.8 -0.5 17
2019-07-23 06:00:00 28 20 Sudeste 45 Este 0 920.5 -1.1 17
2019-07-23 05:00:00 28 10 Sudeste 50 Sur 0 921.1 -0.8 17
2019-07-23 04:00:00 28.1 10 Sudeste 52 Sudeste 0 921.3 -1.1 16
2019-07-23 03:00:00 28.7 18 Sudeste 50 Sudeste 0 921.6 -0.4 15
2019-07-23 02:00:00 28.6 22 Este 51 Este 0 921.9 0.2 14
2019-07-23 01:00:00 28.4 24 Sudeste 48 Sudeste 0 922.4 1.4 13
2019-07-23 00:00:00 28.5 22 Sudeste 60 Sudeste 0 922 1 14
2019-07-22 23:00:00 28.5 26 Sudeste 66 Sudeste 0 921.7 0.8 18
2019-07-22 22:00:00 29.7 31 Sudeste 60 Sudeste 0 921 0.1 19
2019-07-22 21:00:00 30.7 28 Sudeste 54 Este 0 921 -0.3 18
2019-07-22 20:00:00 32.3 27 Este 56 Este 0 920.9 -0.8 15
2019-07-22 19:00:00 33.3 28 Este 53 Este 0 920.9 -1 14
2019-07-22 18:00:00 33.7 29 Este 57 Este 0 921.3 -1.1 15
2019-07-22 17:00:00 34.6 23 Sudeste 48 Este 0 921.7 -0.8 15
2019-07-22 16:00:00 34.6 21 Sudeste 49 Este 0 921.9 -1.3 15
2019-07-22 15:00:00 34.6 19 Sudeste 51 Este 0 922.4 -1.1 15
2019-07-22 14:00:00 33.9 23 Sudeste 50 Sudeste 0 922.5 -1 15
2019-07-22 13:00:00 32.8 18 Sudeste 40 Sudeste 0 923.2 -0.1 14
2019-07-22 12:00:00 31.2 23 Sudeste 45 Este 0 923.5 0.3 16
2019-07-22 11:00:00 29.7 18 Sudeste 41 Sudeste 0 923.5 0.4 18
2019-07-22 10:00:00 29 15 Sudeste 27 Sudeste 0 923.3 0.4 18
2019-07-22 09:00:00 27.6 4 Nordeste 19 Este 0 923.2 0.4 21
2019-07-22 08:00:00 24.6 4 Nordeste 18 Este 0 923.1 0.5 25
2019-07-22 07:00:00 25 10 Sudeste 23 Este 0 922.9 0.3 23
2019-07-22 06:00:00 25.3 10 Este 41 Sudeste 0 922.8 0.3 23
2019-07-22 05:00:00 25.9 22 Sudeste 44 Sudeste 0 922.6 -0.3 22
2019-07-22 04:00:00 26.2 25 Sudeste 49 Sudeste 0 922.6 -0.2 21
2019-07-22 03:00:00 26.4 33 Sudeste 54 Sudeste 0 922.5 -0.2 21
2019-07-22 02:00:00 26.6 30 Sudeste 59 Sudeste 0 922.9 0.6 22
2019-07-22 01:00:00 26.8 31 Sudeste 68 Sudeste 0 922.8 1.2 21
2019-07-22 00:00:00 27.1 37 Sudeste 66 Este 0 922.7 1.6 19
2019-07-21 23:00:00 28.1 35 Sudeste 65 Sudeste 0 922.3 1.6 16
2019-07-21 22:00:00 28.7 27 Sudeste 53 Sudeste 0 921.6 1.1 18
2019-07-21 21:00:00 30 24 Este 51 Sudeste 0 921.1 0.4 18
2019-07-21 20:00:00 31.7 24 Este 46 Este 0 920.7 -0.4 17
2019-07-21 19:00:00 33.1 22 Este 52 Este 0 920.5 -0.9 17
2019-07-21 18:00:00 34.1 22 Este 46 Nordeste 0 920.7 -1.1 18
2019-07-21 17:00:00 34.3 19 Este 45 Este 0 921.1 -1 19
2019-07-21 16:00:00 34 21 Este 44 Este 0 921.4 -0.7 18
2019-07-21 15:00:00 33.9 16 Este 41 Sudeste 0 921.8 -0.2 18
2019-07-21 14:00:00 33.3 17 Este 41 Este 0 922.1 0.1 16
2019-07-21 13:00:00 32.8 14 Este 30 Este 0 922.1 -0.1 15
2019-07-21 12:00:00 32.3 13 Este 24 Este 0 922 -0.1 18
2019-07-21 11:00:00 30.9 3 Noroeste 10 Noroeste 0 922 0.5 26
2019-07-21 10:00:00 28.9 5 Oeste 13 Noroeste 0 922.2 1 30
2019-07-21 09:00:00 26.9 0 Calma 8 Sudeste 0 922.1 1.2 32
2019-07-21 08:00:00 24.1 2 Sudeste 9 Sudoeste 0 921.5 0.7 33
2019-07-21 07:00:00 25 2 Sudeste 13 Sudeste 0 921.2 0.2 31
2019-07-21 06:00:00 26 9 Sudeste 28 Sudeste 0 920.9 0 29
2019-07-21 05:00:00 26.3 4 Este 32 Sudeste 0 920.8 -0.1 28
2019-07-21 04:00:00 26.8 18 Sudeste 39 Sudeste 0 921 0.2 27
2019-07-21 03:00:00 26.9 22 Sudeste 40 Sudeste 0 920.9 0.6 27
2019-07-21 02:00:00 26.6 20 Sudeste 46 Sudeste 0 920.9 1.1 29
2019-07-21 01:00:00 26.9 25 Sudeste 49 Sudeste 0 920.8 1.9 30
2019-07-21 00:00:00 27.2 25 Sudeste 49 Este 0 920.3 2.1 31